Terminal Aerodrome Forecast
Issued by NWS

Home | Current Version | Previous Version | Text Only | Print | Product List | Glossary On
Versions: 1 2 3 4 5 6 7 8 9 10 11 12 13 14 15
599
FTUS45 KABQ 251132
TAFTCC
TAF
KTCC 251132Z 2512/2612 27011KT P6SM SCT200
     FM251500 27016G26KT P6SM BKN200
     FM251800 26025G38KT P6SM BKN200
     FM260200 25014G24KT P6SM BKN200
     FM261000 27011KT P6SM BKN200=

USA.gov is the U.S. government's official web portal to all federal, state and local government web resources and services.